sensor_id;sensor_type;location;lat;lon;timestamp;temperature;humidity
3136;DHT22;1578;47.658;9.922;2024-02-04T00:00:23;0.50;56.60
3136;DHT22;1578;47.658;9.922;2024-02-04T00:02:49;0.60;56.30
3136;DHT22;1578;47.658;9.922;2024-02-04T00:05:15;0.60;55.20
3136;DHT22;1578;47.658;9.922;2024-02-04T00:07:40;0.60;54.90
3136;DHT22;1578;47.658;9.922;2024-02-04T00:10:06;0.70;54.10
3136;DHT22;1578;47.658;9.922;2024-02-04T00:12:32;0.70;53.70
3136;DHT22;1578;47.658;9.922;2024-02-04T00:14:58;0.70;53.50
3136;DHT22;1578;47.658;9.922;2024-02-04T00:17:23;0.50;53.30
3136;DHT22;1578;47.658;9.922;2024-02-04T00:19:55;0.60;53.80
3136;DHT22;1578;47.658;9.922;2024-02-04T00:22:21;0.60;54.20
3136;DHT22;1578;47.658;9.922;2024-02-04T00:24:47;0.70;53.50
3136;DHT22;1578;47.658;9.922;2024-02-04T00:27:13;0.60;52.70
3136;DHT22;1578;47.658;9.922;2024-02-04T00:29:38;0.50;52.90
3136;DHT22;1578;47.658;9.922;2024-02-04T00:32:04;0.60;54.00
3136;DHT22;1578;47.658;9.922;2024-02-04T00:34:30;0.60;53.20
3136;DHT22;1578;47.658;9.922;2024-02-04T00:36:55;0.40;51.50
3136;DHT22;1578;47.658;9.922;2024-02-04T00:39:21;0.40;52.90
3136;DHT22;1578;47.658;9.922;2024-02-04T00:41:46;0.20;53.10
3136;DHT22;1578;47.658;9.922;2024-02-04T00:44:12;0.40;55.30
3136;DHT22;1578;47.658;9.922;2024-02-04T00:46:38;0.40;54.30
3136;DHT22;1578;47.658;9.922;2024-02-04T00:49:03;0.40;53.70
3136;DHT22;1578;47.658;9.922;2024-02-04T00:51:29;0.30;53.20
3136;DHT22;1578;47.658;9.922;2024-02-04T00:53:55;0.30;54.10
3136;DHT22;1578;47.658;9.922;2024-02-04T00:56:20;0.20;55.60
3136;DHT22;1578;47.658;9.922;2024-02-04T00:58:46;0.10;56.20
3136;DHT22;1578;47.658;9.922;2024-02-04T01:01:11;0.10;57.10
3136;DHT22;1578;47.658;9.922;2024-02-04T01:03:37;0.20;58.20
3136;DHT22;1578;47.658;9.922;2024-02-04T01:06:03;0.20;57.90
3136;DHT22;1578;47.658;9.922;2024-02-04T01:08:30;0.30;58.20
3136;DHT22;1578;47.658;9.922;2024-02-04T01:10:55;0.50;57.80
3136;DHT22;1578;47.658;9.922;2024-02-04T01:13:21;0.40;55.90
3136;DHT22;1578;47.658;9.922;2024-02-04T01:15:46;0.30;55.70
3136;DHT22;1578;47.658;9.922;2024-02-04T01:18:12;0.30;56.00
3136;DHT22;1578;47.658;9.922;2024-02-04T01:20:38;0.30;57.40
3136;DHT22;1578;47.658;9.922;2024-02-04T01:23:03;0.20;56.60
3136;DHT22;1578;47.658;9.922;2024-02-04T01:25:29;0.30;57.70
3136;DHT22;1578;47.658;9.922;2024-02-04T01:27:54;0.20;56.10
3136;DHT22;1578;47.658;9.922;2024-02-04T01:30:20;0.30;57.80
3136;DHT22;1578;47.658;9.922;2024-02-04T01:32:46;0.30;57.70
3136;DHT22;1578;47.658;9.922;2024-02-04T01:35:11;0.30;57.30
3136;DHT22;1578;47.658;9.922;2024-02-04T01:37:37;0.40;56.50
3136;DHT22;1578;47.658;9.922;2024-02-04T01:40:03;0.30;57.30
3136;DHT22;1578;47.658;9.922;2024-02-04T01:42:31;0.30;56.30
3136;DHT22;1578;47.658;9.922;2024-02-04T01:44:56;0.30;57.70
3136;DHT22;1578;47.658;9.922;2024-02-04T01:47:22;0.30;57.60
3136;DHT22;1578;47.658;9.922;2024-02-04T01:49:48;0.40;57.00
3136;DHT22;1578;47.658;9.922;2024-02-04T01:52:15;0.50;57.50
3136;DHT22;1578;47.658;9.922;2024-02-04T01:54:42;0.50;56.60
3136;DHT22;1578;47.658;9.922;2024-02-04T01:57:09;0.50;55.20
3136;DHT22;1578;47.658;9.922;2024-02-04T01:59:41;0.30;54.70
3136;DHT22;1578;47.658;9.922;2024-02-04T02:02:06;0.30;55.20
3136;DHT22;1578;47.658;9.922;2024-02-04T02:04:32;0.30;56.10
3136;DHT22;1578;47.658;9.922;2024-02-04T02:06:59;0.50;57.50
3136;DHT22;1578;47.658;9.922;2024-02-04T02:09:26;0.70;58.00
3136;DHT22;1578;47.658;9.922;2024-02-04T02:12:13;0.80;58.10
3136;DHT22;1578;47.658;9.922;2024-02-04T02:14:44;0.80;58.10
3136;DHT22;1578;47.658;9.922;2024-02-04T02:17:15;0.80;58.10
3136;DHT22;1578;47.658;9.922;2024-02-04T02:20:04;1.00;59.00
3136;DHT22;1578;47.658;9.922;2024-02-04T02:25:35;1.10;58.30
3136;DHT22;1578;47.658;9.922;2024-02-04T02:28:01;1.00;57.70
3136;DHT22;1578;47.658;9.922;2024-02-04T02:30:26;1.00;57.40
3136;DHT22;1578;47.658;9.922;2024-02-04T02:32:52;1.10;57.10
3136;DHT22;1578;47.658;9.922;2024-02-04T02:35:18;1.00;57.20
3136;DHT22;1578;47.658;9.922;2024-02-04T02:40:44;1.00;56.80
3136;DHT22;1578;47.658;9.922;2024-02-04T02:43:11;1.00;56.60
3136;DHT22;1578;47.658;9.922;2024-02-04T02:45:41;1.10;56.70
3136;DHT22;1578;47.658;9.922;2024-02-04T02:48:07;1.10;56.10
3136;DHT22;1578;47.658;9.922;2024-02-04T02:50:37;0.90;54.60
3136;DHT22;1578;47.658;9.922;2024-02-04T02:53:03;1.00;56.60
3136;DHT22;1578;47.658;9.922;2024-02-04T02:55:29;1.00;55.10
3136;DHT22;1578;47.658;9.922;2024-02-04T02:57:54;1.00;55.10
3136;DHT22;1578;47.658;9.922;2024-02-04T03:00:20;1.00;53.80
3136;DHT22;1578;47.658;9.922;2024-02-04T03:02:46;1.00;55.40
3136;DHT22;1578;47.658;9.922;2024-02-04T03:05:12;1.00;55.80
3136;DHT22;1578;47.658;9.922;2024-02-04T03:07:38;1.10;55.60
3136;DHT22;1578;47.658;9.922;2024-02-04T03:10:04;1.20;56.80
3136;DHT22;1578;47.658;9.922;2024-02-04T03:12:29;1.20;58.00
3136;DHT22;1578;47.658;9.922;2024-02-04T03:14:55;1.30;59.80
3136;DHT22;1578;47.658;9.922;2024-02-04T03:17:20;1.50;66.20
3136;DHT22;1578;47.658;9.922;2024-02-04T03:19:48;2.00;72.70
3136;DHT22;1578;47.658;9.922;2024-02-04T03:22:14;2.20;72.90
3136;DHT22;1578;47.658;9.922;2024-02-04T03:24:40;2.20;72.80
3136;DHT22;1578;47.658;9.922;2024-02-04T03:27:06;2.10;70.70
3136;DHT22;1578;47.658;9.922;2024-02-04T03:29:31;2.10;72.20
3136;DHT22;1578;47.658;9.922;2024-02-04T03:31:57;2.10;70.00
3136;DHT22;1578;47.658;9.922;2024-02-04T03:34:22;2.10;69.30
3136;DHT22;1578;47.658;9.922;2024-02-04T03:36:48;2.10;69.40
3136;DHT22;1578;47.658;9.922;2024-02-04T03:39:13;2.00;66.90
3136;DHT22;1578;47.658;9.922;2024-02-04T03:41:39;1.90;66.10
3136;DHT22;1578;47.658;9.922;2024-02-04T03:44:05;1.80;64.60
3136;DHT22;1578;47.658;9.922;2024-02-04T03:46:32;2.00;65.80
3136;DHT22;1578;47.658;9.922;2024-02-04T03:48:58;1.90;63.50
3136;DHT22;1578;47.658;9.922;2024-02-04T03:51:23;1.90;63.60
3136;DHT22;1578;47.658;9.922;2024-02-04T03:53:50;2.00;63.90
3136;DHT22;1578;47.658;9.922;2024-02-04T03:56:16;2.00;63.60
3136;DHT22;1578;47.658;9.922;2024-02-04T03:58:41;1.90;62.30
3136;DHT22;1578;47.658;9.922;2024-02-04T04:01:10;2.00;63.60
3136;DHT22;1578;47.658;9.922;2024-02-04T04:03:42;2.10;64.20
3136;DHT22;1578;47.658;9.922;2024-02-04T04:06:09;2.40;68.50
3136;DHT22;1578;47.658;9.922;2024-02-04T04:08:35;2.60;70.20
3136;DHT22;1578;47.658;9.922;2024-02-04T04:11:01;2.70;70.00
3136;DHT22;1578;47.658;9.922;2024-02-04T04:13:26;2.70;70.90
3136;DHT22;1578;47.658;9.922;2024-02-04T04:15:52;2.70;71.30
3136;DHT22;1578;47.658;9.922;2024-02-04T04:18:18;2.90;73.70
3136;DHT22;1578;47.658;9.922;2024-02-04T04:20:43;3.00;74.40
3136;DHT22;1578;47.658;9.922;2024-02-04T04:23:09;2.90;73.30
3136;DHT22;1578;47.658;9.922;2024-02-04T04:25:34;3.00;75.40
3136;DHT22;1578;47.658;9.922;2024-02-04T04:28:00;3.00;73.70
3136;DHT22;1578;47.658;9.922;2024-02-04T04:30:26;3.00;75.70
3136;DHT22;1578;47.658;9.922;2024-02-04T04:32:51;3.10;75.80
3136;DHT22;1578;47.658;9.922;2024-02-04T04:35:17;3.10;74.30
3136;DHT22;1578;47.658;9.922;2024-02-04T04:37:42;3.20;75.10
3136;DHT22;1578;47.658;9.922;2024-02-04T04:40:08;3.20;74.90
3136;DHT22;1578;47.658;9.922;2024-02-04T04:42:34;3.20;74.40
3136;DHT22;1578;47.658;9.922;2024-02-04T04:45:00;3.20;73.70
3136;DHT22;1578;47.658;9.922;2024-02-04T04:47:25;3.30;73.80
3136;DHT22;1578;47.658;9.922;2024-02-04T04:49:51;3.40;74.20
3136;DHT22;1578;47.658;9.922;2024-02-04T04:52:17;3.40;74.00
3136;DHT22;1578;47.658;9.922;2024-02-04T04:54:42;3.50;74.00
3136;DHT22;1578;47.658;9.922;2024-02-04T04:57:08;3.40;73.20
3136;DHT22;1578;47.658;9.922;2024-02-04T04:59:34;3.50;73.40
3136;DHT22;1578;47.658;9.922;2024-02-04T05:02:03;3.50;72.40
3136;DHT22;1578;47.658;9.922;2024-02-04T05:04:30;3.40;71.80
3136;DHT22;1578;47.658;9.922;2024-02-04T05:06:55;3.50;72.30
3136;DHT22;1578;47.658;9.922;2024-02-04T05:09:21;3.60;72.50
3136;DHT22;1578;47.658;9.922;2024-02-04T05:11:46;3.60;70.80
3136;DHT22;1578;47.658;9.922;2024-02-04T05:14:12;3.50;70.60
3136;DHT22;1578;47.658;9.922;2024-02-04T05:16:37;3.50;70.10
3136;DHT22;1578;47.658;9.922;2024-02-04T05:19:03;3.50;69.50
3136;DHT22;1578;47.658;9.922;2024-02-04T05:21:29;3.50;71.10
3136;DHT22;1578;47.658;9.922;2024-02-04T05:23:54;3.50;70.40
3136;DHT22;1578;47.658;9.922;2024-02-04T05:26:20;3.50;70.20
3136;DHT22;1578;47.658;9.922;2024-02-04T05:28:46;3.50;71.90
3136;DHT22;1578;47.658;9.922;2024-02-04T05:31:11;3.50;72.30
3136;DHT22;1578;47.658;9.922;2024-02-04T05:33:37;3.50;72.70
3136;DHT22;1578;47.658;9.922;2024-02-04T05:36:03;3.40;71.70
3136;DHT22;1578;47.658;9.922;2024-02-04T05:38:30;3.50;74.00
3136;DHT22;1578;47.658;9.922;2024-02-04T05:40:55;3.50;73.80
3136;DHT22;1578;47.658;9.922;2024-02-04T05:43:21;3.60;74.10
3136;DHT22;1578;47.658;9.922;2024-02-04T05:45:47;3.60;73.30
3136;DHT22;1578;47.658;9.922;2024-02-04T05:48:13;3.60;73.10
3136;DHT22;1578;47.658;9.922;2024-02-04T05:50:38;3.60;73.50
3136;DHT22;1578;47.658;9.922;2024-02-04T05:53:04;3.70;74.20
3136;DHT22;1578;47.658;9.922;2024-02-04T05:55:30;3.80;72.90
3136;DHT22;1578;47.658;9.922;2024-02-04T05:57:56;3.80;72.00
3136;DHT22;1578;47.658;9.922;2024-02-04T06:00:22;3.70;70.30
3136;DHT22;1578;47.658;9.922;2024-02-04T06:02:48;3.70;71.30
3136;DHT22;1578;47.658;9.922;2024-02-04T06:05:14;3.70;71.50
3136;DHT22;1578;47.658;9.922;2024-02-04T06:07:39;3.70;70.90
3136;DHT22;1578;47.658;9.922;2024-02-04T06:10:09;3.70;70.50
3136;DHT22;1578;47.658;9.922;2024-02-04T06:12:34;3.70;70.90
3136;DHT22;1578;47.658;9.922;2024-02-04T06:15:00;3.70;70.40
3136;DHT22;1578;47.658;9.922;2024-02-04T06:17:25;3.60;70.20
3136;DHT22;1578;47.658;9.922;2024-02-04T06:19:51;3.70;71.10
3136;DHT22;1578;47.658;9.922;2024-02-04T06:22:16;3.70;72.10
3136;DHT22;1578;47.658;9.922;2024-02-04T06:24:42;3.60;70.70
3136;DHT22;1578;47.658;9.922;2024-02-04T06:27:08;3.60;72.00
3136;DHT22;1578;47.658;9.922;2024-02-04T06:29:34;3.60;72.40
3136;DHT22;1578;47.658;9.922;2024-02-04T06:32:00;3.60;72.00
3136;DHT22;1578;47.658;9.922;2024-02-04T06:34:25;3.60;72.80
3136;DHT22;1578;47.658;9.922;2024-02-04T06:36:51;3.70;71.70
3136;DHT22;1578;47.658;9.922;2024-02-04T06:39:16;3.80;72.30
3136;DHT22;1578;47.658;9.922;2024-02-04T06:41:42;3.70;70.40
3136;DHT22;1578;47.658;9.922;2024-02-04T06:44:08;3.70;69.70
3136;DHT22;1578;47.658;9.922;2024-02-04T06:46:33;3.70;70.20
3136;DHT22;1578;47.658;9.922;2024-02-04T06:48:59;3.60;69.60
3136;DHT22;1578;47.658;9.922;2024-02-04T06:51:25;3.60;70.70
3136;DHT22;1578;47.658;9.922;2024-02-04T06:53:50;3.70;70.20
3136;DHT22;1578;47.658;9.922;2024-02-04T06:56:16;3.70;70.40
3136;DHT22;1578;47.658;9.922;2024-02-04T06:58:42;3.80;69.80
3136;DHT22;1578;47.658;9.922;2024-02-04T07:01:08;3.80;70.20
3136;DHT22;1578;47.658;9.922;2024-02-04T07:03:34;3.90;69.90
3136;DHT22;1578;47.658;9.922;2024-02-04T07:06:00;3.90;69.30
3136;DHT22;1578;47.658;9.922;2024-02-04T07:08:26;4.00;68.40
3136;DHT22;1578;47.658;9.922;2024-02-04T07:10:52;3.90;66.00
3136;DHT22;1578;47.658;9.922;2024-02-04T07:13:18;3.80;67.10
3136;DHT22;1578;47.658;9.922;2024-02-04T07:15:43;3.70;68.20
3136;DHT22;1578;47.658;9.922;2024-02-04T07:18:09;3.70;68.50
3136;DHT22;1578;47.658;9.922;2024-02-04T07:20:35;3.70;69.70
3136;DHT22;1578;47.658;9.922;2024-02-04T07:23:01;3.60;70.10
3136;DHT22;1578;47.658;9.922;2024-02-04T07:25:26;3.60;70.10
3136;DHT22;1578;47.658;9.922;2024-02-04T07:27:53;3.60;70.60
3136;DHT22;1578;47.658;9.922;2024-02-04T07:30:19;3.60;69.60
3136;DHT22;1578;47.658;9.922;2024-02-04T07:32:46;3.60;70.40
3136;DHT22;1578;47.658;9.922;2024-02-04T07:35:12;3.70;71.40
3136;DHT22;1578;47.658;9.922;2024-02-04T07:37:38;3.70;71.20
3136;DHT22;1578;47.658;9.922;2024-02-04T07:40:04;3.80;70.20
3136;DHT22;1578;47.658;9.922;2024-02-04T07:42:33;3.90;69.90
3136;DHT22;1578;47.658;9.922;2024-02-04T07:44:58;3.90;68.70
3136;DHT22;1578;47.658;9.922;2024-02-04T07:47:24;3.90;68.60
3136;DHT22;1578;47.658;9.922;2024-02-04T07:49:50;4.00;69.10
3136;DHT22;1578;47.658;9.922;2024-02-04T07:52:16;4.00;66.80
3136;DHT22;1578;47.658;9.922;2024-02-04T07:54:42;3.90;67.20
3136;DHT22;1578;47.658;9.922;2024-02-04T07:57:12;3.90;67.20
3136;DHT22;1578;47.658;9.922;2024-02-04T07:59:37;3.80;68.10
3136;DHT22;1578;47.658;9.922;2024-02-04T08:02:03;3.80;68.70
3136;DHT22;1578;47.658;9.922;2024-02-04T08:04:29;3.80;68.30
3136;DHT22;1578;47.658;9.922;2024-02-04T08:06:54;3.80;68.80
3136;DHT22;1578;47.658;9.922;2024-02-04T08:09:20;3.80;68.80
3136;DHT22;1578;47.658;9.922;2024-02-04T08:11:46;3.80;67.70
3136;DHT22;1578;47.658;9.922;2024-02-04T08:14:12;3.80;69.80
3136;DHT22;1578;47.658;9.922;2024-02-04T08:16:39;3.90;69.20
3136;DHT22;1578;47.658;9.922;2024-02-04T08:19:05;4.00;69.20
3136;DHT22;1578;47.658;9.922;2024-02-04T08:21:32;4.10;66.60
3136;DHT22;1578;47.658;9.922;2024-02-04T08:23:58;4.20;66.20
3136;DHT22;1578;47.658;9.922;2024-02-04T08:26:23;4.20;65.50
3136;DHT22;1578;47.658;9.922;2024-02-04T08:28:50;4.30;64.50
3136;DHT22;1578;47.658;9.922;2024-02-04T08:31:15;4.30;64.40
3136;DHT22;1578;47.658;9.922;2024-02-04T08:33:42;4.40;64.00
3136;DHT22;1578;47.658;9.922;2024-02-04T08:36:07;4.50;60.50
3136;DHT22;1578;47.658;9.922;2024-02-04T08:38:36;4.40;61.10
3136;DHT22;1578;47.658;9.922;2024-02-04T08:41:02;4.40;58.90
3136;DHT22;1578;47.658;9.922;2024-02-04T08:43:28;4.40;60.90
3136;DHT22;1578;47.658;9.922;2024-02-04T08:45:54;4.30;61.00
3136;DHT22;1578;47.658;9.922;2024-02-04T08:48:19;4.40;62.50
3136;DHT22;1578;47.658;9.922;2024-02-04T08:50:45;4.50;60.50
3136;DHT22;1578;47.658;9.922;2024-02-04T08:53:11;4.40;60.20
3136;DHT22;1578;47.658;9.922;2024-02-04T08:55:36;4.40;61.10
3136;DHT22;1578;47.658;9.922;2024-02-04T08:58:02;4.60;62.40
3136;DHT22;1578;47.658;9.922;2024-02-04T09:00:27;4.80;60.30
3136;DHT22;1578;47.658;9.922;2024-02-04T09:02:53;4.90;59.90
3136;DHT22;1578;47.658;9.922;2024-02-04T09:05:19;5.00;58.40
3136;DHT22;1578;47.658;9.922;2024-02-04T09:07:45;5.10;58.40
3136;DHT22;1578;47.658;9.922;2024-02-04T09:10:11;5.10;56.30
3136;DHT22;1578;47.658;9.922;2024-02-04T09:12:36;5.30;57.40
3136;DHT22;1578;47.658;9.922;2024-02-04T09:15:02;5.50;56.10
3136;DHT22;1578;47.658;9.922;2024-02-04T09:17:30;5.70;52.50
3136;DHT22;1578;47.658;9.922;2024-02-04T09:19:57;5.80;52.40
3136;DHT22;1578;47.658;9.922;2024-02-04T09:22:23;6.00;49.20
3136;DHT22;1578;47.658;9.922;2024-02-04T09:24:48;5.90;49.40
3136;DHT22;1578;47.658;9.922;2024-02-04T09:27:14;5.70;50.20
3136;DHT22;1578;47.658;9.922;2024-02-04T09:29:39;5.60;53.10
3136;DHT22;1578;47.658;9.922;2024-02-04T09:32:06;5.50;53.00
3136;DHT22;1578;47.658;9.922;2024-02-04T09:34:32;5.50;54.90
3136;DHT22;1578;47.658;9.922;2024-02-04T09:36:57;5.50;52.60
3136;DHT22;1578;47.658;9.922;2024-02-04T09:39:23;5.30;54.50
3136;DHT22;1578;47.658;9.922;2024-02-04T09:41:49;5.30;54.40
3136;DHT22;1578;47.658;9.922;2024-02-04T09:44:15;5.30;56.60
3136;DHT22;1578;47.658;9.922;2024-02-04T09:46:41;5.30;56.80
3136;DHT22;1578;47.658;9.922;2024-02-04T09:49:08;5.40;57.50
3136;DHT22;1578;47.658;9.922;2024-02-04T09:51:34;5.40;57.00
3136;DHT22;1578;47.658;9.922;2024-02-04T09:54:04;5.40;57.50
3136;DHT22;1578;47.658;9.922;2024-02-04T09:56:33;5.50;56.10
3136;DHT22;1578;47.658;9.922;2024-02-04T09:59:00;5.60;54.30
3136;DHT22;1578;47.658;9.922;2024-02-04T10:01:26;5.70;54.40
3136;DHT22;1578;47.658;9.922;2024-02-04T10:03:52;5.90;53.50
3136;DHT22;1578;47.658;9.922;2024-02-04T10:06:18;5.90;51.90
3136;DHT22;1578;47.658;9.922;2024-02-04T10:08:43;6.00;50.10
3136;DHT22;1578;47.658;9.922;2024-02-04T10:11:11;6.00;50.20
3136;DHT22;1578;47.658;9.922;2024-02-04T10:13:47;6.10;50.00
3136;DHT22;1578;47.658;9.922;2024-02-04T10:16:32;6.30;49.10
3136;DHT22;1578;47.658;9.922;2024-02-04T10:19:00;6.20;48.10
3136;DHT22;1578;47.658;9.922;2024-02-04T10:21:26;6.30;48.80
3136;DHT22;1578;47.658;9.922;2024-02-04T10:23:52;6.40;47.60
3136;DHT22;1578;47.658;9.922;2024-02-04T10:26:17;6.40;46.50
3136;DHT22;1578;47.658;9.922;2024-02-04T10:28:46;6.60;47.10
3136;DHT22;1578;47.658;9.922;2024-02-04T10:31:13;6.90;48.40
3136;DHT22;1578;47.658;9.922;2024-02-04T10:33:38;7.30;43.30
3136;DHT22;1578;47.658;9.922;2024-02-04T10:36:04;7.40;40.60
3136;DHT22;1578;47.658;9.922;2024-02-04T10:38:31;7.60;42.40
3136;DHT22;1578;47.658;9.922;2024-02-04T10:40:59;7.90;39.30
3136;DHT22;1578;47.658;9.922;2024-02-04T10:43:32;7.90;37.80
3136;DHT22;1578;47.658;9.922;2024-02-04T10:46:02;8.10;37.50
3136;DHT22;1578;47.658;9.922;2024-02-04T10:48:36;8.40;33.00
3136;DHT22;1578;47.658;9.922;2024-02-04T10:51:13;8.40;31.80
3136;DHT22;1578;47.658;9.922;2024-02-04T10:53:41;8.40;35.10
3136;DHT22;1578;47.658;9.922;2024-02-04T10:59:05;8.70;30.00
3136;DHT22;1578;47.658;9.922;2024-02-04T11:01:32;8.60;30.50
3136;DHT22;1578;47.658;9.922;2024-02-04T11:03:59;8.40;32.70
3136;DHT22;1578;47.658;9.922;2024-02-04T11:06:26;8.60;31.90
3136;DHT22;1578;47.658;9.922;2024-02-04T11:08:52;8.40;33.00
3136;DHT22;1578;47.658;9.922;2024-02-04T11:11:19;8.30;30.40
3136;DHT22;1578;47.658;9.922;2024-02-04T11:13:48;8.40;31.80
3136;DHT22;1578;47.658;9.922;2024-02-04T11:16:27;8.60;31.40
3136;DHT22;1578;47.658;9.922;2024-02-04T11:24:39;8.90;29.50
3136;DHT22;1578;47.658;9.922;2024-02-04T11:27:08;8.90;30.30
3136;DHT22;1578;47.658;9.922;2024-02-04T11:29:34;9.10;28.30
3136;DHT22;1578;47.658;9.922;2024-02-04T11:32:01;9.10;28.30
3136;DHT22;1578;47.658;9.922;2024-02-04T11:34:27;9.00;27.40
3136;DHT22;1578;47.658;9.922;2024-02-04T11:36:53;9.20;28.90
3136;DHT22;1578;47.658;9.922;2024-02-04T11:39:19;9.20;26.10
3136;DHT22;1578;47.658;9.922;2024-02-04T11:41:48;9.10;28.10
3136;DHT22;1578;47.658;9.922;2024-02-04T11:44:24;9.00;29.30
3136;DHT22;1578;47.658;9.922;2024-02-04T11:46:50;8.90;28.70
3136;DHT22;1578;47.658;9.922;2024-02-04T11:49:17;8.60;29.60
3136;DHT22;1578;47.658;9.922;2024-02-04T11:51:51;8.70;30.40
3136;DHT22;1578;47.658;9.922;2024-02-04T11:54:18;8.40;30.30
3136;DHT22;1578;47.658;9.922;2024-02-04T11:56:50;8.30;29.50
3136;DHT22;1578;47.658;9.922;2024-02-04T11:59:20;8.10;29.60
3136;DHT22;1578;47.658;9.922;2024-02-04T12:01:48;8.00;30.10
3136;DHT22;1578;47.658;9.922;2024-02-04T12:04:16;7.80;32.40
3136;DHT22;1578;47.658;9.922;2024-02-04T12:06:42;7.80;32.70
3136;DHT22;1578;47.658;9.922;2024-02-04T12:09:09;7.90;31.40
3136;DHT22;1578;47.658;9.922;2024-02-04T12:11:38;7.90;31.50
3136;DHT22;1578;47.658;9.922;2024-02-04T12:14:05;7.90;31.50
3136;DHT22;1578;47.658;9.922;2024-02-04T12:16:32;7.80;33.70
3136;DHT22;1578;47.658;9.922;2024-02-04T12:19:00;8.10;31.70
3136;DHT22;1578;47.658;9.922;2024-02-04T12:21:26;8.20;31.70
3136;DHT22;1578;47.658;9.922;2024-02-04T12:23:52;8.50;30.40
3136;DHT22;1578;47.658;9.922;2024-02-04T12:26:18;8.90;30.10
3136;DHT22;1578;47.658;9.922;2024-02-04T12:28:43;9.00;30.00
3136;DHT22;1578;47.658;9.922;2024-02-04T12:31:24;9.00;29.30
3136;DHT22;1578;47.658;9.922;2024-02-04T12:33:58;9.00;29.10
3136;DHT22;1578;47.658;9.922;2024-02-04T12:36:27;9.30;27.20
3136;DHT22;1578;47.658;9.922;2024-02-04T12:38:58;9.70;27.40
3136;DHT22;1578;47.658;9.922;2024-02-04T12:41:25;9.90;27.10
3136;DHT22;1578;47.658;9.922;2024-02-04T12:43:55;10.30;23.90
3136;DHT22;1578;47.658;9.922;2024-02-04T12:46:21;10.20;25.30
3136;DHT22;1578;47.658;9.922;2024-02-04T12:48:58;10.20;23.70
3136;DHT22;1578;47.658;9.922;2024-02-04T12:51:28;10.50;24.50
3136;DHT22;1578;47.658;9.922;2024-02-04T12:54:06;11.20;23.80
3136;DHT22;1578;47.658;9.922;2024-02-04T12:56:52;11.80;18.50
3136;DHT22;1578;47.658;9.922;2024-02-04T12:59:34;11.70;19.60
3136;DHT22;1578;47.658;9.922;2024-02-04T13:02:04;11.50;19.60
3136;DHT22;1578;47.658;9.922;2024-02-04T13:04:40;11.60;18.70
3136;DHT22;1578;47.658;9.922;2024-02-04T13:09:38;10.90;20.20
3136;DHT22;1578;47.658;9.922;2024-02-04T13:12:08;11.00;19.50
3136;DHT22;1578;47.658;9.922;2024-02-04T13:14:35;11.20;19.40
3136;DHT22;1578;47.658;9.922;2024-02-04T13:17:02;11.00;20.10
3136;DHT22;1578;47.658;9.922;2024-02-04T13:19:33;11.50;20.60
3136;DHT22;1578;47.658;9.922;2024-02-04T13:21:58;11.70;20.20
3136;DHT22;1578;47.658;9.922;2024-02-04T13:24:24;12.10;17.90
3136;DHT22;1578;47.658;9.922;2024-02-04T13:26:50;12.10;16.50
3136;DHT22;1578;47.658;9.922;2024-02-04T13:29:15;11.70;18.10
3136;DHT22;1578;47.658;9.922;2024-02-04T13:31:41;11.00;17.90
3136;DHT22;1578;47.658;9.922;2024-02-04T13:34:07;10.80;19.30
3136;DHT22;1578;47.658;9.922;2024-02-04T13:36:32;10.30;20.30
3136;DHT22;1578;47.658;9.922;2024-02-04T13:38:58;9.90;22.40
3136;DHT22;1578;47.658;9.922;2024-02-04T13:41:23;9.70;23.40
3136;DHT22;1578;47.658;9.922;2024-02-04T13:43:49;9.50;24.50
3136;DHT22;1578;47.658;9.922;2024-02-04T13:46:16;9.60;24.60
3136;DHT22;1578;47.658;9.922;2024-02-04T13:48:41;9.50;25.50
3136;DHT22;1578;47.658;9.922;2024-02-04T13:51:07;9.50;25.40
3136;DHT22;1578;47.658;9.922;2024-02-04T13:53:33;9.40;26.00
3136;DHT22;1578;47.658;9.922;2024-02-04T13:56:01;9.40;25.90
3136;DHT22;1578;47.658;9.922;2024-02-04T13:58:27;9.30;25.60
3136;DHT22;1578;47.658;9.922;2024-02-04T14:00:52;9.30;25.60
3136;DHT22;1578;47.658;9.922;2024-02-04T14:03:18;9.20;25.90
3136;DHT22;1578;47.658;9.922;2024-02-04T14:05:44;9.20;25.80
3136;DHT22;1578;47.658;9.922;2024-02-04T14:08:10;9.30;26.30
3136;DHT22;1578;47.658;9.922;2024-02-04T14:10:36;9.40;25.60
3136;DHT22;1578;47.658;9.922;2024-02-04T14:13:02;9.40;26.90
3136;DHT22;1578;47.658;9.922;2024-02-04T14:15:28;9.60;27.10
3136;DHT22;1578;47.658;9.922;2024-02-04T14:17:54;9.90;26.40
3136;DHT22;1578;47.658;9.922;2024-02-04T14:20:19;10.20;24.20
3136;DHT22;1578;47.658;9.922;2024-02-04T14:22:45;10.50;22.50
3136;DHT22;1578;47.658;9.922;2024-02-04T14:25:11;10.70;21.90
3136;DHT22;1578;47.658;9.922;2024-02-04T14:27:38;10.70;22.10
3136;DHT22;1578;47.658;9.922;2024-02-04T14:30:04;10.70;22.40
3136;DHT22;1578;47.658;9.922;2024-02-04T14:32:32;10.70;20.60
3136;DHT22;1578;47.658;9.922;2024-02-04T14:34:58;10.60;21.30
3136;DHT22;1578;47.658;9.922;2024-02-04T14:37:23;10.50;21.40
3136;DHT22;1578;47.658;9.922;2024-02-04T14:39:49;10.20;22.10
3136;DHT22;1578;47.658;9.922;2024-02-04T14:42:16;10.20;22.70
3136;DHT22;1578;47.658;9.922;2024-02-04T14:44:44;10.00;22.80
3136;DHT22;1578;47.658;9.922;2024-02-04T14:47:15;10.00;23.50
3136;DHT22;1578;47.658;9.922;2024-02-04T14:49:42;10.10;24.20
3136;DHT22;1578;47.658;9.922;2024-02-04T14:52:07;10.10;23.50
3136;DHT22;1578;47.658;9.922;2024-02-04T14:54:33;10.10;22.60
3136;DHT22;1578;47.658;9.922;2024-02-04T14:56:59;9.90;24.10
3136;DHT22;1578;47.658;9.922;2024-02-04T14:59:25;9.90;23.30
3136;DHT22;1578;47.658;9.922;2024-02-04T15:01:50;9.90;24.10
3136;DHT22;1578;47.658;9.922;2024-02-04T15:04:16;9.90;23.40
3136;DHT22;1578;47.658;9.922;2024-02-04T15:06:42;9.80;24.00
3136;DHT22;1578;47.658;9.922;2024-02-04T15:09:08;9.70;24.60
3136;DHT22;1578;47.658;9.922;2024-02-04T15:11:36;9.50;24.90
3136;DHT22;1578;47.658;9.922;2024-02-04T15:14:02;9.40;25.50
3136;DHT22;1578;47.658;9.922;2024-02-04T15:16:28;9.30;25.00
3136;DHT22;1578;47.658;9.922;2024-02-04T15:18:53;9.30;25.50
3136;DHT22;1578;47.658;9.922;2024-02-04T15:21:19;9.30;24.80
3136;DHT22;1578;47.658;9.922;2024-02-04T15:23:45;9.20;25.60
3136;DHT22;1578;47.658;9.922;2024-02-04T15:26:11;9.10;26.00
3136;DHT22;1578;47.658;9.922;2024-02-04T15:28:38;9.00;26.10
3136;DHT22;1578;47.658;9.922;2024-02-04T15:31:05;9.00;26.50
3136;DHT22;1578;47.658;9.922;2024-02-04T15:33:31;8.90;25.70
3136;DHT22;1578;47.658;9.922;2024-02-04T15:35:56;8.80;26.70
3136;DHT22;1578;47.658;9.922;2024-02-04T15:38:22;8.80;26.50
3136;DHT22;1578;47.658;9.922;2024-02-04T15:40:49;8.80;26.20
3136;DHT22;1578;47.658;9.922;2024-02-04T15:43:15;8.70;26.50
3136;DHT22;1578;47.658;9.922;2024-02-04T15:45:41;8.70;26.70
3136;DHT22;1578;47.658;9.922;2024-02-04T15:48:09;8.80;25.60
3136;DHT22;1578;47.658;9.922;2024-02-04T15:50:36;8.80;26.80
3136;DHT22;1578;47.658;9.922;2024-02-04T15:53:02;8.70;26.20
3136;DHT22;1578;47.658;9.922;2024-02-04T15:55:28;8.70;26.80
3136;DHT22;1578;47.658;9.922;2024-02-04T15:57:56;8.70;26.10
3136;DHT22;1578;47.658;9.922;2024-02-04T16:00:23;8.60;26.50
3136;DHT22;1578;47.658;9.922;2024-02-04T16:02:53;8.60;26.80
3136;DHT22;1578;47.658;9.922;2024-02-04T16:05:20;8.60;26.90
3136;DHT22;1578;47.658;9.922;2024-02-04T16:07:47;8.50;27.10
3136;DHT22;1578;47.658;9.922;2024-02-04T16:10:15;8.50;27.60
3136;DHT22;1578;47.658;9.922;2024-02-04T16:13:01;8.40;28.00
3136;DHT22;1578;47.658;9.922;2024-02-04T16:15:29;8.50;27.30
3136;DHT22;1578;47.658;9.922;2024-02-04T16:17:55;8.40;27.10
3136;DHT22;1578;47.658;9.922;2024-02-04T16:20:22;8.40;27.50
3136;DHT22;1578;47.658;9.922;2024-02-04T16:22:48;8.40;25.80
3136;DHT22;1578;47.658;9.922;2024-02-04T16:25:15;8.40;26.60
3136;DHT22;1578;47.658;9.922;2024-02-04T16:27:42;8.30;26.60
3136;DHT22;1578;47.658;9.922;2024-02-04T16:30:08;8.30;26.20